sensor_id;sensor_type;location;lat;lon;timestamp;temperature;humidity
11491;DHT22;5802;52.832;4.758;2022-09-28T00:01:45;23.30;48.40
11491;DHT22;5802;52.832;4.758;2022-09-28T00:04:12;23.30;48.40
11491;DHT22;5802;52.832;4.758;2022-09-28T00:06:39;23.30;48.40
11491;DHT22;5802;52.832;4.758;2022-09-28T00:09:07;23.30;48.40
11491;DHT22;5802;52.832;4.758;2022-09-28T00:11:34;23.30;48.50
11491;DHT22;5802;52.832;4.758;2022-09-28T00:14:02;23.30;48.50
11491;DHT22;5802;52.832;4.758;2022-09-28T00:16:32;23.30;48.50
11491;DHT22;5802;52.832;4.758;2022-09-28T00:18:59;23.30;48.50
11491;DHT22;5802;52.832;4.758;2022-09-28T00:21:27;23.30;48.50
11491;DHT22;5802;52.832;4.758;2022-09-28T00:23:55;23.30;48.50
11491;DHT22;5802;52.832;4.758;2022-09-28T00:26:43;23.30;48.60
11491;DHT22;5802;52.832;4.758;2022-09-28T00:29:19;23.30;48.50
11491;DHT22;5802;52.832;4.758;2022-09-28T00:31:46;23.30;48.60
11491;DHT22;5802;52.832;4.758;2022-09-28T00:34:14;23.20;48.50
11491;DHT22;5802;52.832;4.758;2022-09-28T00:36:43;23.20;48.50
11491;DHT22;5802;52.832;4.758;2022-09-28T00:39:11;23.20;48.60
11491;DHT22;5802;52.832;4.758;2022-09-28T00:41:40;23.20;48.50
11491;DHT22;5802;52.832;4.758;2022-09-28T00:44:42;23.30;48.60
11491;DHT22;5802;52.832;4.758;2022-09-28T00:47:26;23.20;48.60
11491;DHT22;5802;52.832;4.758;2022-09-28T00:49:59;23.20;48.60
11491;DHT22;5802;52.832;4.758;2022-09-28T00:52:30;23.20;48.60
11491;DHT22;5802;52.832;4.758;2022-09-28T00:54:59;23.20;48.60
11491;DHT22;5802;52.832;4.758;2022-09-28T00:57:29;23.20;48.60
11491;DHT22;5802;52.832;4.758;2022-09-28T00:59:58;23.20;48.70
11491;DHT22;5802;52.832;4.758;2022-09-28T01:02:25;23.20;49.30
11491;DHT22;5802;52.832;4.758;2022-09-28T01:04:52;23.20;48.70
11491;DHT22;5802;52.832;4.758;2022-09-28T01:07:21;23.20;48.70
11491;DHT22;5802;52.832;4.758;2022-09-28T01:09:49;23.20;48.60
11491;DHT22;5802;52.832;4.758;2022-09-28T01:12:16;23.20;48.70
11491;DHT22;5802;52.832;4.758;2022-09-28T01:14:45;23.20;48.60
11491;DHT22;5802;52.832;4.758;2022-09-28T01:17:14;23.20;48.70
11491;DHT22;5802;52.832;4.758;2022-09-28T01:20:03;23.20;48.70
11491;DHT22;5802;52.832;4.758;2022-09-28T01:22:46;23.20;48.70
11491;DHT22;5802;52.832;4.758;2022-09-28T01:25:30;23.20;48.70
11491;DHT22;5802;52.832;4.758;2022-09-28T01:28:04;23.20;48.70
11491;DHT22;5802;52.832;4.758;2022-09-28T01:30:39;23.10;48.60
11491;DHT22;5802;52.832;4.758;2022-09-28T01:33:09;23.20;48.70
11491;DHT22;5802;52.832;4.758;2022-09-28T01:35:40;23.10;48.70
11491;DHT22;5802;52.832;4.758;2022-09-28T01:38:12;23.10;48.70
11491;DHT22;5802;52.832;4.758;2022-09-28T01:40:42;23.10;48.70
11491;DHT22;5802;52.832;4.758;2022-09-28T01:43:14;23.10;48.70
11491;DHT22;5802;52.832;4.758;2022-09-28T01:45:44;23.10;48.70
11491;DHT22;5802;52.832;4.758;2022-09-28T01:48:14;23.10;48.70
11491;DHT22;5802;52.832;4.758;2022-09-28T01:50:44;23.20;48.70
11491;DHT22;5802;52.832;4.758;2022-09-28T01:53:15;23.10;48.70
11491;DHT22;5802;52.832;4.758;2022-09-28T01:55:47;23.20;49.40
11491;DHT22;5802;52.832;4.758;2022-09-28T01:58:19;23.10;48.70
11491;DHT22;5802;52.832;4.758;2022-09-28T02:00:55;23.10;48.70
11491;DHT22;5802;52.832;4.758;2022-09-28T02:03:26;23.20;48.80
11491;DHT22;5802;52.832;4.758;2022-09-28T02:05:57;23.20;48.80
11491;DHT22;5802;52.832;4.758;2022-09-28T02:08:28;23.10;48.80
11491;DHT22;5802;52.832;4.758;2022-09-28T02:11:00;23.20;48.80
11491;DHT22;5802;52.832;4.758;2022-09-28T02:13:33;23.10;48.70
11491;DHT22;5802;52.832;4.758;2022-09-28T02:16:04;23.10;48.70
11491;DHT22;5802;52.832;4.758;2022-09-28T02:18:33;23.10;48.70
11491;DHT22;5802;52.832;4.758;2022-09-28T02:21:06;23.10;48.70
11491;DHT22;5802;52.832;4.758;2022-09-28T02:23:35;23.10;48.70
11491;DHT22;5802;52.832;4.758;2022-09-28T02:26:07;23.10;48.70
11491;DHT22;5802;52.832;4.758;2022-09-28T02:28:35;23.10;48.70
11491;DHT22;5802;52.832;4.758;2022-09-28T02:31:02;23.10;48.70
11491;DHT22;5802;52.832;4.758;2022-09-28T02:33:33;23.10;48.70
11491;DHT22;5802;52.832;4.758;2022-09-28T02:36:01;23.10;49.40
11491;DHT22;5802;52.832;4.758;2022-09-28T02:38:29;23.10;48.70
11491;DHT22;5802;52.832;4.758;2022-09-28T02:41:02;23.10;48.70
11491;DHT22;5802;52.832;4.758;2022-09-28T02:43:38;23.10;48.70
11491;DHT22;5802;52.832;4.758;2022-09-28T02:46:14;23.10;48.70
11491;DHT22;5802;52.832;4.758;2022-09-28T02:48:54;23.10;48.70
11491;DHT22;5802;52.832;4.758;2022-09-28T02:51:32;23.10;48.80
11491;DHT22;5802;52.832;4.758;2022-09-28T02:54:10;23.10;48.80
11491;DHT22;5802;52.832;4.758;2022-09-28T02:56:52;23.10;48.80
11491;DHT22;5802;52.832;4.758;2022-09-28T02:59:34;23.10;48.80
11491;DHT22;5802;52.832;4.758;2022-09-28T03:02:12;23.10;48.90
11491;DHT22;5802;52.832;4.758;2022-09-28T03:04:51;23.00;48.90
11491;DHT22;5802;52.832;4.758;2022-09-28T03:07:23;23.00;48.80
11491;DHT22;5802;52.832;4.758;2022-09-28T03:09:55;23.00;48.80
11491;DHT22;5802;52.832;4.758;2022-09-28T03:12:25;23.00;48.80
11491;DHT22;5802;52.832;4.758;2022-09-28T03:15:07;23.00;48.80
11491;DHT22;5802;52.832;4.758;2022-09-28T03:17:34;23.00;48.80
11491;DHT22;5802;52.832;4.758;2022-09-28T03:20:01;23.00;48.70
11491;DHT22;5802;52.832;4.758;2022-09-28T03:22:28;23.00;48.80
11491;DHT22;5802;52.832;4.758;2022-09-28T03:24:55;23.00;48.70
11491;DHT22;5802;52.832;4.758;2022-09-28T03:27:23;23.00;48.70
11491;DHT22;5802;52.832;4.758;2022-09-28T03:29:49;23.00;48.80
11491;DHT22;5802;52.832;4.758;2022-09-28T03:32:17;23.00;48.70
11491;DHT22;5802;52.832;4.758;2022-09-28T03:34:44;23.00;48.80
11491;DHT22;5802;52.832;4.758;2022-09-28T03:37:10;23.00;48.80
11491;DHT22;5802;52.832;4.758;2022-09-28T03:39:37;23.00;48.80
11491;DHT22;5802;52.832;4.758;2022-09-28T03:42:04;23.00;48.80
11491;DHT22;5802;52.832;4.758;2022-09-28T03:44:31;23.00;48.80
11491;DHT22;5802;52.832;4.758;2022-09-28T03:46:57;23.00;48.80
11491;DHT22;5802;52.832;4.758;2022-09-28T03:49:25;23.00;48.80
11491;DHT22;5802;52.832;4.758;2022-09-28T03:51:52;23.00;48.70
11491;DHT22;5802;52.832;4.758;2022-09-28T03:54:18;23.00;48.80
11491;DHT22;5802;52.832;4.758;2022-09-28T03:56:45;23.00;48.70
11491;DHT22;5802;52.832;4.758;2022-09-28T03:59:12;23.00;48.70
11491;DHT22;5802;52.832;4.758;2022-09-28T04:01:38;23.00;48.70
11491;DHT22;5802;52.832;4.758;2022-09-28T04:04:05;23.00;48.80
11491;DHT22;5802;52.832;4.758;2022-09-28T04:06:33;23.00;48.70
11491;DHT22;5802;52.832;4.758;2022-09-28T04:09:00;23.00;48.70
11491;DHT22;5802;52.832;4.758;2022-09-28T04:11:26;23.00;48.70
11491;DHT22;5802;52.832;4.758;2022-09-28T04:13:53;23.00;48.70
11491;DHT22;5802;52.832;4.758;2022-09-28T04:16:20;23.00;48.80
11491;DHT22;5802;52.832;4.758;2022-09-28T04:18:47;23.00;48.80
11491;DHT22;5802;52.832;4.758;2022-09-28T04:21:15;23.00;48.80
11491;DHT22;5802;52.832;4.758;2022-09-28T04:23:43;23.00;48.80
11491;DHT22;5802;52.832;4.758;2022-09-28T04:26:13;23.00;48.80
11491;DHT22;5802;52.832;4.758;2022-09-28T04:28:41;23.00;48.80
11491;DHT22;5802;52.832;4.758;2022-09-28T04:31:26;23.00;48.80
11491;DHT22;5802;52.832;4.758;2022-09-28T04:33:53;23.00;48.80
11491;DHT22;5802;52.832;4.758;2022-09-28T04:36:20;23.00;48.80
11491;DHT22;5802;52.832;4.758;2022-09-28T04:38:48;23.00;48.80
11491;DHT22;5802;52.832;4.758;2022-09-28T04:41:14;23.00;48.80
11491;DHT22;5802;52.832;4.758;2022-09-28T04:43:41;23.00;48.80
11491;DHT22;5802;52.832;4.758;2022-09-28T04:46:09;23.00;48.90
11491;DHT22;5802;52.832;4.758;2022-09-28T04:48:36;23.00;48.80
11491;DHT22;5802;52.832;4.758;2022-09-28T04:51:03;22.90;48.80
11491;DHT22;5802;52.832;4.758;2022-09-28T04:53:30;23.00;48.80
11491;DHT22;5802;52.832;4.758;2022-09-28T04:55:59;23.00;48.90
11491;DHT22;5802;52.832;4.758;2022-09-28T04:58:26;23.00;48.90
11491;DHT22;5802;52.832;4.758;2022-09-28T05:00:56;22.90;48.80
11491;DHT22;5802;52.832;4.758;2022-09-28T05:03:23;22.90;48.80
11491;DHT22;5802;52.832;4.758;2022-09-28T05:05:50;22.90;48.80
11491;DHT22;5802;52.832;4.758;2022-09-28T05:08:16;22.90;48.80
11491;DHT22;5802;52.832;4.758;2022-09-28T05:10:43;23.00;48.90
11491;DHT22;5802;52.832;4.758;2022-09-28T05:13:12;23.00;48.80
11491;DHT22;5802;52.832;4.758;2022-09-28T05:15:40;22.90;48.80
11491;DHT22;5802;52.832;4.758;2022-09-28T05:18:07;23.00;48.90
11491;DHT22;5802;52.832;4.758;2022-09-28T05:20:39;22.90;48.80
11491;DHT22;5802;52.832;4.758;2022-09-28T05:23:08;22.90;48.90
11491;DHT22;5802;52.832;4.758;2022-09-28T05:25:35;22.90;48.80
11491;DHT22;5802;52.832;4.758;2022-09-28T05:28:02;22.90;48.80
11491;DHT22;5802;52.832;4.758;2022-09-28T05:30:31;22.90;48.80
11491;DHT22;5802;52.832;4.758;2022-09-28T05:32:58;22.90;48.80
11491;DHT22;5802;52.832;4.758;2022-09-28T05:35:25;22.90;48.90
11491;DHT22;5802;52.832;4.758;2022-09-28T05:37:51;22.90;48.80
11491;DHT22;5802;52.832;4.758;2022-09-28T05:40:19;22.90;48.80
11491;DHT22;5802;52.832;4.758;2022-09-28T05:42:46;22.90;48.90
11491;DHT22;5802;52.832;4.758;2022-09-28T05:45:13;22.90;48.90
11491;DHT22;5802;52.832;4.758;2022-09-28T05:47:42;22.90;48.80
11491;DHT22;5802;52.832;4.758;2022-09-28T05:50:11;22.90;48.80
11491;DHT22;5802;52.832;4.758;2022-09-28T05:52:40;22.90;48.80
11491;DHT22;5802;52.832;4.758;2022-09-28T05:55:08;22.90;48.90
11491;DHT22;5802;52.832;4.758;2022-09-28T05:57:35;22.90;48.90
11491;DHT22;5802;52.832;4.758;2022-09-28T06:00:02;22.90;48.80
11491;DHT22;5802;52.832;4.758;2022-09-28T06:02:28;22.90;48.80
11491;DHT22;5802;52.832;4.758;2022-09-28T06:04:56;22.90;48.90
11491;DHT22;5802;52.832;4.758;2022-09-28T06:07:23;22.90;48.80
11491;DHT22;5802;52.832;4.758;2022-09-28T06:09:50;22.90;49.50
11491;DHT22;5802;52.832;4.758;2022-09-28T06:12:17;22.90;48.80
11491;DHT22;5802;52.832;4.758;2022-09-28T06:14:44;22.90;48.80
11491;DHT22;5802;52.832;4.758;2022-09-28T06:17:11;23.00;48.90
11491;DHT22;5802;52.832;4.758;2022-09-28T06:19:38;23.00;48.90
11491;DHT22;5802;52.832;4.758;2022-09-28T06:22:06;23.00;48.80
11491;DHT22;5802;52.832;4.758;2022-09-28T06:24:33;23.00;48.80
11491;DHT22;5802;52.832;4.758;2022-09-28T06:26:59;23.00;48.80
11491;DHT22;5802;52.832;4.758;2022-09-28T06:29:26;23.00;48.90
11491;DHT22;5802;52.832;4.758;2022-09-28T06:31:53;23.00;48.80
11491;DHT22;5802;52.832;4.758;2022-09-28T06:34:20;23.00;48.80
11491;DHT22;5802;52.832;4.758;2022-09-28T06:36:49;23.00;48.80
11491;DHT22;5802;52.832;4.758;2022-09-28T06:39:17;23.00;48.80
11491;DHT22;5802;52.832;4.758;2022-09-28T06:41:43;23.00;48.80
11491;DHT22;5802;52.832;4.758;2022-09-28T06:44:10;23.00;48.70
11491;DHT22;5802;52.832;4.758;2022-09-28T06:46:37;23.00;48.70
11491;DHT22;5802;52.832;4.758;2022-09-28T06:49:04;23.00;48.70
11491;DHT22;5802;52.832;4.758;2022-09-28T06:51:33;23.00;48.80
11491;DHT22;5802;52.832;4.758;2022-09-28T06:54:00;23.00;48.80
11491;DHT22;5802;52.832;4.758;2022-09-28T06:56:28;23.00;48.80
11491;DHT22;5802;52.832;4.758;2022-09-28T06:58:55;23.00;48.80
11491;DHT22;5802;52.832;4.758;2022-09-28T07:01:21;23.00;48.80
11491;DHT22;5802;52.832;4.758;2022-09-28T07:03:48;23.00;48.70
11491;DHT22;5802;52.832;4.758;2022-09-28T07:06:14;23.00;48.70
11491;DHT22;5802;52.832;4.758;2022-09-28T07:08:42;23.00;48.70
11491;DHT22;5802;52.832;4.758;2022-09-28T07:11:09;23.00;48.70
11491;DHT22;5802;52.832;4.758;2022-09-28T07:13:39;23.00;48.70
11491;DHT22;5802;52.832;4.758;2022-09-28T07:16:06;23.00;48.70
11491;DHT22;5802;52.832;4.758;2022-09-28T07:18:32;23.00;48.70
11491;DHT22;5802;52.832;4.758;2022-09-28T07:20:59;23.00;48.70
11491;DHT22;5802;52.832;4.758;2022-09-28T07:23:27;23.10;48.70
11491;DHT22;5802;52.832;4.758;2022-09-28T07:25:54;23.10;48.70
11491;DHT22;5802;52.832;4.758;2022-09-28T07:28:22;23.10;48.70
11491;DHT22;5802;52.832;4.758;2022-09-28T07:30:51;23.20;48.80
11491;DHT22;5802;52.832;4.758;2022-09-28T07:33:17;23.20;48.60
11491;DHT22;5802;52.832;4.758;2022-09-28T07:35:51;23.30;48.60
11491;DHT22;5802;52.832;4.758;2022-09-28T07:38:18;23.30;48.50
11491;DHT22;5802;52.832;4.758;2022-09-28T07:40:44;23.40;48.40
11491;DHT22;5802;52.832;4.758;2022-09-28T07:43:29;23.40;48.30
11491;DHT22;5802;52.832;4.758;2022-09-28T07:45:57;23.50;48.20
11491;DHT22;5802;52.832;4.758;2022-09-28T07:48:23;23.50;48.20
11491;DHT22;5802;52.832;4.758;2022-09-28T07:50:51;23.60;48.10
11491;DHT22;5802;52.832;4.758;2022-09-28T07:53:19;23.60;48.00
11491;DHT22;5802;52.832;4.758;2022-09-28T07:55:50;23.70;48.00
11491;DHT22;5802;52.832;4.758;2022-09-28T07:58:16;23.70;47.90
11491;DHT22;5802;52.832;4.758;2022-09-28T08:00:44;23.70;47.80
11491;DHT22;5802;52.832;4.758;2022-09-28T08:03:14;23.80;47.80
11491;DHT22;5802;52.832;4.758;2022-09-28T08:05:41;23.80;47.70
11491;DHT22;5802;52.832;4.758;2022-09-28T08:08:08;23.80;47.60
11491;DHT22;5802;52.832;4.758;2022-09-28T08:10:34;23.90;47.60
11491;DHT22;5802;52.832;4.758;2022-09-28T08:13:02;23.90;47.50
11491;DHT22;5802;52.832;4.758;2022-09-28T08:15:32;24.00;47.50
11491;DHT22;5802;52.832;4.758;2022-09-28T08:18:00;24.00;47.50
11491;DHT22;5802;52.832;4.758;2022-09-28T08:20:28;24.00;47.40
11491;DHT22;5802;52.832;4.758;2022-09-28T08:23:12;24.10;47.40
11491;DHT22;5802;52.832;4.758;2022-09-28T08:25:45;24.10;47.30
11491;DHT22;5802;52.832;4.758;2022-09-28T08:28:13;24.10;47.30
11491;DHT22;5802;52.832;4.758;2022-09-28T08:30:40;24.20;47.30
11491;DHT22;5802;52.832;4.758;2022-09-28T08:33:07;24.20;47.20
11491;DHT22;5802;52.832;4.758;2022-09-28T08:35:35;24.20;47.10
11491;DHT22;5802;52.832;4.758;2022-09-28T08:38:02;24.30;47.10
11491;DHT22;5802;52.832;4.758;2022-09-28T08:40:35;24.30;47.00
11491;DHT22;5802;52.832;4.758;2022-09-28T08:43:18;24.40;47.00
11491;DHT22;5802;52.832;4.758;2022-09-28T08:45:48;24.40;46.90
11491;DHT22;5802;52.832;4.758;2022-09-28T08:48:19;24.40;46.90
11491;DHT22;5802;52.832;4.758;2022-09-28T08:51:11;24.40;46.90
11491;DHT22;5802;52.832;4.758;2022-09-28T08:53:43;24.40;46.90
11491;DHT22;5802;52.832;4.758;2022-09-28T08:56:21;24.40;46.90
11491;DHT22;5802;52.832;4.758;2022-09-28T08:58:54;24.30;46.80
11491;DHT22;5802;52.832;4.758;2022-09-28T09:01:22;24.40;47.00
11491;DHT22;5802;52.832;4.758;2022-09-28T09:03:51;24.40;47.00
11491;DHT22;5802;52.832;4.758;2022-09-28T09:06:26;24.50;46.90
11491;DHT22;5802;52.832;4.758;2022-09-28T09:09:02;24.50;47.00
11491;DHT22;5802;52.832;4.758;2022-09-28T09:11:44;24.50;46.90
11491;DHT22;5802;52.832;4.758;2022-09-28T09:14:33;24.50;46.80
11491;DHT22;5802;52.832;4.758;2022-09-28T09:17:12;24.50;46.80
11491;DHT22;5802;52.832;4.758;2022-09-28T09:19:51;24.60;46.80
11491;DHT22;5802;52.832;4.758;2022-09-28T09:22:30;24.50;46.70
11491;DHT22;5802;52.832;4.758;2022-09-28T09:25:11;24.60;46.80
11491;DHT22;5802;52.832;4.758;2022-09-28T09:27:53;24.50;46.70
11491;DHT22;5802;52.832;4.758;2022-09-28T09:30:23;24.50;46.70
11491;DHT22;5802;52.832;4.758;2022-09-28T09:33:10;24.50;46.80
11491;DHT22;5802;52.832;4.758;2022-09-28T09:36:05;24.50;46.90
11491;DHT22;5802;52.832;4.758;2022-09-28T09:38:48;24.50;46.90
11491;DHT22;5802;52.832;4.758;2022-09-28T09:41:27;24.40;46.90
11491;DHT22;5802;52.832;4.758;2022-09-28T09:44:17;24.40;46.90
11491;DHT22;5802;52.832;4.758;2022-09-28T09:46:48;24.40;47.00
11491;DHT22;5802;52.832;4.758;2022-09-28T09:49:19;24.40;47.00
11491;DHT22;5802;52.832;4.758;2022-09-28T09:51:53;24.40;47.00
11491;DHT22;5802;52.832;4.758;2022-09-28T09:54:27;24.40;47.10
11491;DHT22;5802;52.832;4.758;2022-09-28T09:56:58;24.40;47.00
11491;DHT22;5802;52.832;4.758;2022-09-28T09:59:31;24.40;47.10
11491;DHT22;5802;52.832;4.758;2022-09-28T10:02:00;24.30;47.10
11491;DHT22;5802;52.832;4.758;2022-09-28T10:04:31;24.30;47.10
11491;DHT22;5802;52.832;4.758;2022-09-28T10:07:03;24.30;47.10
11491;DHT22;5802;52.832;4.758;2022-09-28T10:09:32;24.30;47.10
11491;DHT22;5802;52.832;4.758;2022-09-28T10:12:00;24.30;47.10
11491;DHT22;5802;52.832;4.758;2022-09-28T10:14:27;24.30;47.10
11491;DHT22;5802;52.832;4.758;2022-09-28T10:16:56;24.30;47.20
11491;DHT22;5802;52.832;4.758;2022-09-28T10:19:29;24.30;47.20
11491;DHT22;5802;52.832;4.758;2022-09-28T10:21:58;24.30;47.20
11491;DHT22;5802;52.832;4.758;2022-09-28T10:24:29;24.30;47.20
11491;DHT22;5802;52.832;4.758;2022-09-28T10:27:03;24.30;47.20
11491;DHT22;5802;52.832;4.758;2022-09-28T10:29:38;24.30;47.20
11491;DHT22;5802;52.832;4.758;2022-09-28T10:32:17;24.30;47.20
11491;DHT22;5802;52.832;4.758;2022-09-28T10:34:44;24.30;47.30
11491;DHT22;5802;52.832;4.758;2022-09-28T10:37:11;24.30;47.30
11491;DHT22;5802;52.832;4.758;2022-09-28T10:39:43;24.30;47.20
11491;DHT22;5802;52.832;4.758;2022-09-28T10:42:18;24.30;47.20
11491;DHT22;5802;52.832;4.758;2022-09-28T10:44:50;24.30;47.20
11491;DHT22;5802;52.832;4.758;2022-09-28T10:47:20;24.30;47.20
11491;DHT22;5802;52.832;4.758;2022-09-28T10:49:49;24.30;47.20
11491;DHT22;5802;52.832;4.758;2022-09-28T10:52:35;24.40;47.20
11491;DHT22;5802;52.832;4.758;2022-09-28T10:55:25;24.40;47.20
11491;DHT22;5802;52.832;4.758;2022-09-28T10:57:53;24.40;47.20
11491;DHT22;5802;52.832;4.758;2022-09-28T11:00:32;24.30;47.20
11491;DHT22;5802;52.832;4.758;2022-09-28T11:03:00;24.40;47.20
11491;DHT22;5802;52.832;4.758;2022-09-28T11:05:27;24.30;47.20
11491;DHT22;5802;52.832;4.758;2022-09-28T11:07:55;24.40;47.20
11491;DHT22;5802;52.832;4.758;2022-09-28T11:10:25;24.40;47.20
11491;DHT22;5802;52.832;4.758;2022-09-28T11:12:54;24.40;47.20
11491;DHT22;5802;52.832;4.758;2022-09-28T11:15:24;24.40;47.20
11491;DHT22;5802;52.832;4.758;2022-09-28T11:17:51;24.50;47.20
11491;DHT22;5802;52.832;4.758;2022-09-28T11:20:33;24.50;47.20
11491;DHT22;5802;52.832;4.758;2022-09-28T11:23:16;24.50;47.10
11491;DHT22;5802;52.832;4.758;2022-09-28T11:25:55;24.50;47.10
11491;DHT22;5802;52.832;4.758;2022-09-28T11:28:29;24.50;47.10
11491;DHT22;5802;52.832;4.758;2022-09-28T11:30:57;24.50;47.10
11491;DHT22;5802;52.832;4.758;2022-09-28T11:33:29;24.50;47.30
11491;DHT22;5802;52.832;4.758;2022-09-28T11:36:13;24.40;47.10
11491;DHT22;5802;52.832;4.758;2022-09-28T11:38:53;24.40;47.10
11491;DHT22;5802;52.832;4.758;2022-09-28T11:44:27;24.40;47.20
11491;DHT22;5802;52.832;4.758;2022-09-28T11:47:07;24.40;47.20
11491;DHT22;5802;52.832;4.758;2022-09-28T11:49:40;24.40;47.20
11491;DHT22;5802;52.832;4.758;2022-09-28T11:52:15;24.40;47.20
11491;DHT22;5802;52.832;4.758;2022-09-28T11:54:48;24.40;47.20
11491;DHT22;5802;52.832;4.758;2022-09-28T11:57:19;24.50;47.20
11491;DHT22;5802;52.832;4.758;2022-09-28T11:59:54;24.50;47.20
11491;DHT22;5802;52.832;4.758;2022-09-28T12:02:25;24.50;47.20
11491;DHT22;5802;52.832;4.758;2022-09-28T12:05:04;24.50;47.20
11491;DHT22;5802;52.832;4.758;2022-09-28T12:07:36;24.50;47.20
11491;DHT22;5802;52.832;4.758;2022-09-28T12:10:09;24.50;47.10
11491;DHT22;5802;52.832;4.758;2022-09-28T12:12:44;24.50;47.80
11491;DHT22;5802;52.832;4.758;2022-09-28T12:15:17;24.50;47.10
11491;DHT22;5802;52.832;4.758;2022-09-28T12:17:48;24.50;47.10
11491;DHT22;5802;52.832;4.758;2022-09-28T12:20:19;24.50;47.10
11491;DHT22;5802;52.832;4.758;2022-09-28T12:22:53;24.50;47.10
11491;DHT22;5802;52.832;4.758;2022-09-28T12:25:24;24.50;47.20
11491;DHT22;5802;52.832;4.758;2022-09-28T12:27:56;24.50;47.10
11491;DHT22;5802;52.832;4.758;2022-09-28T12:30:29;24.50;47.10
11491;DHT22;5802;52.832;4.758;2022-09-28T12:33:03;24.50;47.10
11491;DHT22;5802;52.832;4.758;2022-09-28T12:35:37;24.50;47.00
11491;DHT22;5802;52.832;4.758;2022-09-28T12:38:24;24.60;47.10
11491;DHT22;5802;52.832;4.758;2022-09-28T12:40:57;24.60;47.10
11491;DHT22;5802;52.832;4.758;2022-09-28T12:43:37;24.60;47.10
11491;DHT22;5802;52.832;4.758;2022-09-28T12:46:29;24.60;47.10
11491;DHT22;5802;52.832;4.758;2022-09-28T12:49:16;24.50;47.00
11491;DHT22;5802;52.832;4.758;2022-09-28T12:51:47;24.60;47.10
11491;DHT22;5802;52.832;4.758;2022-09-28T12:54:36;24.50;47.00
11491;DHT22;5802;52.832;4.758;2022-09-28T12:57:18;24.50;47.00
11491;DHT22;5802;52.832;4.758;2022-09-28T12:59:52;24.50;47.00
11491;DHT22;5802;52.832;4.758;2022-09-28T13:02:46;24.50;47.00
11491;DHT22;5802;52.832;4.758;2022-09-28T13:05:35;24.50;47.70
11491;DHT22;5802;52.832;4.758;2022-09-28T13:08:12;24.50;47.10
11491;DHT22;5802;52.832;4.758;2022-09-28T13:10:50;24.50;47.10
11491;DHT22;5802;52.832;4.758;2022-09-28T13:13:31;24.50;47.10
11491;DHT22;5802;52.832;4.758;2022-09-28T13:16:03;24.50;47.20
11491;DHT22;5802;52.832;4.758;2022-09-28T13:18:39;24.50;47.20
11491;DHT22;5802;52.832;4.758;2022-09-28T13:21:14;24.50;47.20
11491;DHT22;5802;52.832;4.758;2022-09-28T13:23:45;24.40;47.10
11491;DHT22;5802;52.832;4.758;2022-09-28T13:26:23;24.40;47.20
11491;DHT22;5802;52.832;4.758;2022-09-28T13:28:54;24.40;47.30
11491;DHT22;5802;52.832;4.758;2022-09-28T13:31:23;24.40;47.20
11491;DHT22;5802;52.832;4.758;2022-09-28T13:33:56;24.40;47.20
11491;DHT22;5802;52.832;4.758;2022-09-28T13:36:38;24.40;47.20
11491;DHT22;5802;52.832;4.758;2022-09-28T13:39:36;24.40;47.20
11491;DHT22;5802;52.832;4.758;2022-09-28T13:42:05;24.40;47.20
11491;DHT22;5802;52.832;4.758;2022-09-28T13:47:51;24.30;47.20
11491;DHT22;5802;52.832;4.758;2022-09-28T13:50:30;24.30;47.30
11491;DHT22;5802;52.832;4.758;2022-09-28T13:53:08;24.30;47.40
11491;DHT22;5802;52.832;4.758;2022-09-28T13:55:40;24.30;47.40
11491;DHT22;5802;52.832;4.758;2022-09-28T13:58:18;24.30;47.30
11491;DHT22;5802;52.832;4.758;2022-09-28T14:00:49;24.30;47.40
11491;DHT22;5802;52.832;4.758;2022-09-28T14:03:26;24.30;47.40
11491;DHT22;5802;52.832;4.758;2022-09-28T14:06:19;24.40;48.10
11491;DHT22;5802;52.832;4.758;2022-09-28T14:09:07;24.40;47.40
11491;DHT22;5802;52.832;4.758;2022-09-28T14:11:41;24.40;47.30
11491;DHT22;5802;52.832;4.758;2022-09-28T14:14:43;24.50;47.30
11491;DHT22;5802;52.832;4.758;2022-09-28T14:17:45;24.50;47.30
11491;DHT22;5802;52.832;4.758;2022-09-28T14:20:16;24.50;47.20
11491;DHT22;5802;52.832;4.758;2022-09-28T14:25:37;24.50;47.20
11491;DHT22;5802;52.832;4.758;2022-09-28T14:28:23;24.50;47.10
11491;DHT22;5802;52.832;4.758;2022-09-28T14:30:55;24.60;47.10
11491;DHT22;5802;52.832;4.758;2022-09-28T14:33:26;24.60;47.10
11491;DHT22;5802;52.832;4.758;2022-09-28T14:35:56;24.60;47.10
11491;DHT22;5802;52.832;4.758;2022-09-28T14:38:28;24.60;47.10
11491;DHT22;5802;52.832;4.758;2022-09-28T14:41:26;24.60;47.10
11491;DHT22;5802;52.832;4.758;2022-09-28T14:44:00;24.60;47.10
11491;DHT22;5802;52.832;4.758;2022-09-28T14:46:38;24.50;47.20
11491;DHT22;5802;52.832;4.758;2022-09-28T14:49:42;24.60;47.10
11491;DHT22;5802;52.832;4.758;2022-09-28T14:52:11;24.60;47.20
11491;DHT22;5802;52.832;4.758;2022-09-28T14:54:49;24.50;47.10
11491;DHT22;5802;52.832;4.758;2022-09-28T14:57:23;24.50;47.10
11491;DHT22;5802;52.832;4.758;2022-09-28T14:59:50;24.50;47.20
11491;DHT22;5802;52.832;4.758;2022-09-28T15:02:28;24.50;47.10
11491;DHT22;5802;52.832;4.758;2022-09-28T15:05:00;24.50;47.10
11491;DHT22;5802;52.832;4.758;2022-09-28T15:07:28;24.50;47.10
11491;DHT22;5802;52.832;4.758;2022-09-28T15:10:00;24.50;47.10
11491;DHT22;5802;52.832;4.758;2022-09-28T15:12:29;24.50;47.10
11491;DHT22;5802;52.832;4.758;2022-09-28T15:14:57;24.50;47.10
11491;DHT22;5802;52.832;4.758;2022-09-28T15:17:28;24.60;47.20
11491;DHT22;5802;52.832;4.758;2022-09-28T15:20:20;24.60;47.10
11491;DHT22;5802;52.832;4.758;2022-09-28T15:22:50;24.60;47.10
11491;DHT22;5802;52.832;4.758;2022-09-28T15:25:20;24.60;47.10
11491;DHT22;5802;52.832;4.758;2022-09-28T15:27:51;24.50;47.00
11491;DHT22;5802;52.832;4.758;2022-09-28T15:30:23;24.50;47.00
11491;DHT22;5802;52.832;4.758;2022-09-28T15:32:50;24.50;47.10
11491;DHT22;5802;52.832;4.758;2022-09-28T15:35:21;24.50;47.10
11491;DHT22;5802;52.832;4.758;2022-09-28T15:37:48;24.50;47.10
11491;DHT22;5802;52.832;4.758;2022-09-28T15:40:28;24.50;47.20
11491;DHT22;5802;52.832;4.758;2022-09-28T15:42:55;24.50;47.20
11491;DHT22;5802;52.832;4.758;2022-09-28T15:45:25;24.50;47.20
11491;DHT22;5802;52.832;4.758;2022-09-28T15:48:13;24.40;47.20
11491;DHT22;5802;52.832;4.758;2022-09-28T15:50:56;24.40;47.20
11491;DHT22;5802;52.832;4.758;2022-09-28T15:53:23;24.40;47.30
11491;DHT22;5802;52.832;4.758;2022-09-28T15:55:51;24.40;47.30
11491;DHT22;5802;52.832;4.758;2022-09-28T15:58:24;24.40;47.30
11491;DHT22;5802;52.832;4.758;2022-09-28T16:01:17;24.30;47.30
11491;DHT22;5802;52.832;4.758;2022-09-28T16:03:45;24.30;47.30
11491;DHT22;5802;52.832;4.758;2022-09-28T16:06:12;24.30;47.40
11491;DHT22;5802;52.832;4.758;2022-09-28T16:08:40;24.30;47.40
11491;DHT22;5802;52.832;4.758;2022-09-28T16:11:15;24.30;47.40
11491;DHT22;5802;52.832;4.758;2022-09-28T16:13:50;24.30;47.40
11491;DHT22;5802;52.832;4.758;2022-09-28T16:16:24;24.30;47.40
11491;DHT22;5802;52.832;4.758;2022-09-28T16:18:51;24.30;47.60
11491;DHT22;5802;52.832;4.758;2022-09-28T16:21:38;24.30;47.50
11491;DHT22;5802;52.832;4.758;2022-09-28T16:24:05;24.20;47.50
11491;DHT22;5802;52.832;4.758;2022-09-28T16:26:35;24.20;47.50